EDT,Max TemperatureF,Mean TemperatureF,Min TemperatureF,Max Dew PointF,MeanDew PointF,Min DewpointF,Max Humidity, Mean Humidity, Min Humidity, Max Sea Level PressureIn, Mean Sea Level PressureIn, Min Sea Level PressureIn, Max VisibilityMiles, Mean VisibilityMiles, Min VisibilityMiles, Max Wind SpeedMPH, Mean Wind SpeedMPH, Max Gust SpeedMPH,PrecipitationIn, CloudCover, Events, WindDirDegrees
2013-4-1,79,67,55,63,57,51,100,70,39,30.03,29.98,29.94,10,10,6,15,7,21,0.02,5,Rain,251
2013-4-2,80,64,48,52,45,39,89,57,25,30.18,30.10,30.04,10,9,5,12,3,24,0.00,0,,62
2013-4-3,66,59,52,56,49,40,93,69,44,30.14,30.08,30.01,10,8,3,17,9,25,0.02,5,Rain,56
2013-4-4,60,55,49,57,53,47,100,93,86,30.07,29.99,29.94,10,6,2,17,8,23,0.02,8,Rain,53
2013-4-5,58,50,42,47,45,42,93,80,66,30.11,30.00,29.91,10,8,2,13,6,17,0.02,7,Rain-Thunderstorm,15
2013-4-6,75,57,38,50,43,37,96,63,29,30.20,30.16,30.11,10,10,8,12,3,17,0.00,0,,105
2013-4-7,80,63,46,55,50,45,93,65,36,30.22,30.15,30.09,10,10,10,13,4,16,0.00,2,,156
2013-4-8,83,68,53,59,55,51,93,65,37,30.17,30.12,30.08,10,10,6,18,6,23,0.00,2,,176
2013-4-9,85,70,54,61,57,53,93,65,37,30.19,30.14,30.11,10,8,2,15,4,20,0.00,1,,152
2013-4-10,85,71,57,59,56,53,90,62,34,30.13,30.07,29.97,10,10,8,16,5,23,0.00,1,,146
2013-4-11,86,73,59,70,65,56,90,71,51,29.97,29.86,29.74,10,10,8,28,11,36,0.20,5,Rain-Thunderstorm,179
2013-4-12,79,69,59,70,62,43,97,64,30,29.95,29.82,29.75,10,9,2,18,9,24,T,5,Rain-Thunderstorm,252
2013-4-13,81,63,45,50,44,37,93,57,21,30.07,30.01,29.96,10,10,9,13,2,20,0.00,0,,333
2013-4-14,63,60,56,61,56,49,100,86,62,30.04,29.98,29.79,10,7,1,18,4,26,0.98,5,Rain-Thunderstorm,97
2013-4-15,81,70,58,63,60,57,100,77,54,30.14,30.02,29.93,10,10,9,9,3,16,0.00,4,,68
2013-4-16,84,73,61,65,63,60,100,74,47,30.23,30.17,30.14,10,9,6,14,6,17,0.00,2,,93
2013-4-17,82,73,63,64,61,57,93,68,43,30.23,30.17,30.10,10,10,9,13,5,17,0.00,0,,113
2013-4-18,84,72,59,65,62,59,97,72,47,30.10,30.04,29.97,10,10,8,18,7,22,0.00,2,,157
2013-4-19,83,66,49,70,59,46,100,83,65,30.13,29.97,29.87,10,7,0,29,9,45,1.07,6,Fog-Rain-Thunderstorm,265
2013-4-20,69,57,44,48,40,31,100,62,24,30.23,30.18,30.12,10,10,9,15,6,22,0.00,0,Rain,342
2013-4-21,74,59,43,52,43,38,96,63,29,30.29,30.23,30.19,10,10,10,24,8,33,0.00,1,,66
2013-4-22,74,66,58,53,51,47,77,59,41,30.25,30.19,30.13,10,10,10,20,9,23,0.00,7,,69
2013-4-23,78,65,52,55,49,44,78,59,40,30.22,30.16,30.10,10,10,10,15,5,20,0.00,0,,66
2013-4-24,82,68,54,63,58,52,93,71,48,30.18,30.13,30.09,10,10,6,17,5,23,0.00,3,,204
2013-4-25,80,68,55,65,60,42,100,71,41,30.27,30.20,30.13,10,9,5,13,5,17,0.00,5,,298
2013-4-26,83,64,45,54,43,36,71,49,26,30.34,30.29,30.25,10,10,10,13,5,17,0.00,0,,73
2013-4-27,83,70,56,57,54,52,86,62,37,30.30,30.23,30.13,10,10,10,21,7,25,0.00,2,,111
2013-4-28,82,71,60,70,63,55,100,77,54,30.15,30.07,30.00,10,9,1,22,4,24,0.18,3,Rain-Thunderstorm,206
2013-4-29,74,68,61,67,64,62,100,87,73,30.04,30.01,29.96,10,8,3,9,3,12,0.12,5,Rain,81
2013-4-30,83,71,59,64,61,58,100,72,43,30.06,30.01,29.98,10,4,0,10,3,17,0.00,5,Fog,83